sensor_id;sensor_type;location;lat;lon;timestamp;P1;durP1;ratioP1;P2;durP2;ratioP2
19049;SDS011;9657;45.940;12.840;2022-11-15T00:02:16;19.77;;;11.60;;
19049;SDS011;9657;45.940;12.840;2022-11-15T00:04:45;23.23;;;11.30;;
19049;SDS011;9657;45.940;12.840;2022-11-15T00:07:12;23.47;;;11.00;;
19049;SDS011;9657;45.940;12.840;2022-11-15T00:09:39;20.77;;;10.40;;
19049;SDS011;9657;45.940;12.840;2022-11-15T00:12:06;20.73;;;9.83;;
19049;SDS011;9657;45.940;12.840;2022-11-15T00:14:33;17.00;;;9.43;;
19049;SDS011;9657;45.940;12.840;2022-11-15T00:17:00;21.90;;;11.00;;
19049;SDS011;9657;45.940;12.840;2022-11-15T00:19:27;18.17;;;11.37;;
19049;SDS011;9657;45.940;12.840;2022-11-15T00:21:55;20.80;;;12.23;;
19049;SDS011;9657;45.940;12.840;2022-11-15T00:24:22;16.63;;;11.27;;
19049;SDS011;9657;45.940;12.840;2022-11-15T00:26:49;17.03;;;10.47;;
19049;SDS011;9657;45.940;12.840;2022-11-15T00:29:16;16.87;;;10.67;;
19049;SDS011;9657;45.940;12.840;2022-11-15T00:31:43;18.87;;;11.10;;
19049;SDS011;9657;45.940;12.840;2022-11-15T00:34:11;18.67;;;10.23;;
19049;SDS011;9657;45.940;12.840;2022-11-15T00:36:38;19.27;;;10.53;;
19049;SDS011;9657;45.940;12.840;2022-11-15T00:39:06;14.37;;;9.60;;
19049;SDS011;9657;45.940;12.840;2022-11-15T00:41:33;19.93;;;10.27;;
19049;SDS011;9657;45.940;12.840;2022-11-15T00:44:01;16.63;;;10.33;;
19049;SDS011;9657;45.940;12.840;2022-11-15T00:46:28;16.23;;;9.00;;
19049;SDS011;9657;45.940;12.840;2022-11-15T00:48:55;13.43;;;9.50;;
19049;SDS011;9657;45.940;12.840;2022-11-15T00:51:22;17.27;;;10.13;;
19049;SDS011;9657;45.940;12.840;2022-11-15T00:53:49;13.30;;;9.20;;
19049;SDS011;9657;45.940;12.840;2022-11-15T00:56:17;14.40;;;8.77;;
19049;SDS011;9657;45.940;12.840;2022-11-15T00:58:44;14.77;;;8.03;;
19049;SDS011;9657;45.940;12.840;2022-11-15T01:01:12;13.77;;;8.80;;
19049;SDS011;9657;45.940;12.840;2022-11-15T01:03:40;13.83;;;9.30;;
19049;SDS011;9657;45.940;12.840;2022-11-15T01:06:08;14.80;;;7.67;;
19049;SDS011;9657;45.940;12.840;2022-11-15T01:08:37;14.47;;;8.97;;
19049;SDS011;9657;45.940;12.840;2022-11-15T01:11:06;14.27;;;8.67;;
19049;SDS011;9657;45.940;12.840;2022-11-15T01:13:36;13.80;;;8.47;;
19049;SDS011;9657;45.940;12.840;2022-11-15T01:16:08;13.33;;;7.57;;
19049;SDS011;9657;45.940;12.840;2022-11-15T01:18:38;14.37;;;7.97;;
19049;SDS011;9657;45.940;12.840;2022-11-15T01:21:06;12.00;;;8.17;;
19049;SDS011;9657;45.940;12.840;2022-11-15T01:23:34;14.17;;;9.10;;
19049;SDS011;9657;45.940;12.840;2022-11-15T01:26:02;15.60;;;8.07;;
19049;SDS011;9657;45.940;12.840;2022-11-15T01:28:30;14.37;;;8.00;;
19049;SDS011;9657;45.940;12.840;2022-11-15T01:30:59;12.10;;;8.47;;
19049;SDS011;9657;45.940;12.840;2022-11-15T01:33:29;14.33;;;8.97;;
19049;SDS011;9657;45.940;12.840;2022-11-15T01:35:57;12.73;;;8.20;;
19049;SDS011;9657;45.940;12.840;2022-11-15T01:38:24;11.90;;;8.70;;
19049;SDS011;9657;45.940;12.840;2022-11-15T01:40:51;11.23;;;7.30;;
19049;SDS011;9657;45.940;12.840;2022-11-15T01:43:21;13.30;;;7.90;;
19049;SDS011;9657;45.940;12.840;2022-11-15T01:45:51;13.30;;;7.33;;
19049;SDS011;9657;45.940;12.840;2022-11-15T01:48:24;12.60;;;7.03;;
19049;SDS011;9657;45.940;12.840;2022-11-15T01:50:55;12.97;;;7.57;;
19049;SDS011;9657;45.940;12.840;2022-11-15T01:53:22;12.13;;;6.97;;
19049;SDS011;9657;45.940;12.840;2022-11-15T01:55:51;13.00;;;8.00;;
19049;SDS011;9657;45.940;12.840;2022-11-15T01:58:19;12.90;;;8.40;;
19049;SDS011;9657;45.940;12.840;2022-11-15T02:03:22;11.47;;;7.37;;
19049;SDS011;9657;45.940;12.840;2022-11-15T02:05:58;11.67;;;7.27;;
19049;SDS011;9657;45.940;12.840;2022-11-15T02:08:26;11.53;;;7.97;;
19049;SDS011;9657;45.940;12.840;2022-11-15T02:10:53;11.03;;;7.07;;
19049;SDS011;9657;45.940;12.840;2022-11-15T02:13:20;11.67;;;7.27;;
19049;SDS011;9657;45.940;12.840;2022-11-15T02:15:49;12.00;;;6.27;;
19049;SDS011;9657;45.940;12.840;2022-11-15T02:18:26;12.33;;;7.47;;
19049;SDS011;9657;45.940;12.840;2022-11-15T02:21:02;13.17;;;7.33;;
19049;SDS011;9657;45.940;12.840;2022-11-15T02:29:26;10.60;;;6.80;;
19049;SDS011;9657;45.940;12.840;2022-11-15T02:32:05;10.70;;;7.33;;
19049;SDS011;9657;45.940;12.840;2022-11-15T02:34:42;8.67;;;6.63;;
19049;SDS011;9657;45.940;12.840;2022-11-15T02:37:18;8.70;;;6.30;;
19049;SDS011;9657;45.940;12.840;2022-11-15T02:39:54;10.00;;;6.63;;
19049;SDS011;9657;45.940;12.840;2022-11-15T02:42:26;11.93;;;6.67;;
19049;SDS011;9657;45.940;12.840;2022-11-15T02:45:15;9.33;;;5.97;;
19049;SDS011;9657;45.940;12.840;2022-11-15T02:47:49;9.10;;;6.70;;
19049;SDS011;9657;45.940;12.840;2022-11-15T02:50:20;8.30;;;6.20;;
19049;SDS011;9657;45.940;12.840;2022-11-15T02:52:50;10.23;;;6.07;;
19049;SDS011;9657;45.940;12.840;2022-11-15T02:55:28;10.03;;;6.60;;
19049;SDS011;9657;45.940;12.840;2022-11-15T02:58:05;10.63;;;6.63;;
19049;SDS011;9657;45.940;12.840;2022-11-15T03:00:47;10.23;;;6.60;;
19049;SDS011;9657;45.940;12.840;2022-11-15T03:03:25;7.30;;;5.53;;
19049;SDS011;9657;45.940;12.840;2022-11-15T03:06:09;9.80;;;5.90;;
19049;SDS011;9657;45.940;12.840;2022-11-15T03:08:46;9.03;;;5.90;;
19049;SDS011;9657;45.940;12.840;2022-11-15T03:11:20;8.27;;;5.40;;
19049;SDS011;9657;45.940;12.840;2022-11-15T03:13:50;8.60;;;6.33;;
19049;SDS011;9657;45.940;12.840;2022-11-15T03:16:24;9.43;;;5.53;;
19049;SDS011;9657;45.940;12.840;2022-11-15T03:18:59;8.03;;;5.67;;
19049;SDS011;9657;45.940;12.840;2022-11-15T03:21:33;8.83;;;5.73;;
19049;SDS011;9657;45.940;12.840;2022-11-15T03:24:02;7.53;;;5.27;;
19049;SDS011;9657;45.940;12.840;2022-11-15T03:26:32;8.67;;;5.33;;
19049;SDS011;9657;45.940;12.840;2022-11-15T03:29:03;9.50;;;5.70;;
19049;SDS011;9657;45.940;12.840;2022-11-15T03:31:34;8.43;;;5.60;;
19049;SDS011;9657;45.940;12.840;2022-11-15T03:34:18;7.47;;;5.00;;
19049;SDS011;9657;45.940;12.840;2022-11-15T03:36:50;8.23;;;5.37;;
19049;SDS011;9657;45.940;12.840;2022-11-15T03:39:18;7.37;;;5.47;;
19049;SDS011;9657;45.940;12.840;2022-11-15T03:41:48;7.17;;;5.50;;
19049;SDS011;9657;45.940;12.840;2022-11-15T03:44:25;6.20;;;5.03;;
19049;SDS011;9657;45.940;12.840;2022-11-15T03:47:02;8.83;;;5.57;;
19049;SDS011;9657;45.940;12.840;2022-11-15T03:49:35;7.03;;;5.20;;
19049;SDS011;9657;45.940;12.840;2022-11-15T03:52:05;7.87;;;5.07;;
19049;SDS011;9657;45.940;12.840;2022-11-15T03:54:32;9.87;;;5.00;;
19049;SDS011;9657;45.940;12.840;2022-11-15T03:56:59;7.57;;;5.33;;
19049;SDS011;9657;45.940;12.840;2022-11-15T03:59:26;7.20;;;5.20;;
19049;SDS011;9657;45.940;12.840;2022-11-15T04:01:53;7.87;;;5.00;;
19049;SDS011;9657;45.940;12.840;2022-11-15T04:04:20;6.83;;;4.70;;
19049;SDS011;9657;45.940;12.840;2022-11-15T04:06:49;5.80;;;4.27;;
19049;SDS011;9657;45.940;12.840;2022-11-15T04:09:16;5.83;;;4.17;;
19049;SDS011;9657;45.940;12.840;2022-11-15T04:11:43;6.37;;;4.50;;
19049;SDS011;9657;45.940;12.840;2022-11-15T04:14:11;6.73;;;4.10;;
19049;SDS011;9657;45.940;12.840;2022-11-15T04:16:38;7.50;;;4.00;;
19049;SDS011;9657;45.940;12.840;2022-11-15T04:19:05;6.50;;;3.97;;
19049;SDS011;9657;45.940;12.840;2022-11-15T04:21:51;5.63;;;4.57;;
19049;SDS011;9657;45.940;12.840;2022-11-15T04:24:35;6.57;;;4.10;;
19049;SDS011;9657;45.940;12.840;2022-11-15T04:27:02;6.07;;;4.63;;
19049;SDS011;9657;45.940;12.840;2022-11-15T04:29:29;5.17;;;4.20;;
19049;SDS011;9657;45.940;12.840;2022-11-15T04:32:03;6.00;;;4.03;;
19049;SDS011;9657;45.940;12.840;2022-11-15T04:34:31;7.37;;;4.10;;
19049;SDS011;9657;45.940;12.840;2022-11-15T04:37:00;6.10;;;4.00;;
19049;SDS011;9657;45.940;12.840;2022-11-15T04:39:41;5.90;;;3.70;;
19049;SDS011;9657;45.940;12.840;2022-11-15T04:42:09;5.30;;;3.67;;
19049;SDS011;9657;45.940;12.840;2022-11-15T04:44:36;6.30;;;3.70;;
19049;SDS011;9657;45.940;12.840;2022-11-15T04:47:03;5.87;;;4.33;;
19049;SDS011;9657;45.940;12.840;2022-11-15T04:49:31;6.00;;;3.93;;
19049;SDS011;9657;45.940;12.840;2022-11-15T04:51:58;5.07;;;3.60;;
19049;SDS011;9657;45.940;12.840;2022-11-15T04:54:26;6.07;;;3.77;;
19049;SDS011;9657;45.940;12.840;2022-11-15T04:56:53;5.77;;;4.10;;
19049;SDS011;9657;45.940;12.840;2022-11-15T04:59:20;6.37;;;4.03;;
19049;SDS011;9657;45.940;12.840;2022-11-15T05:01:47;5.47;;;3.87;;
19049;SDS011;9657;45.940;12.840;2022-11-15T05:04:14;7.93;;;4.47;;
19049;SDS011;9657;45.940;12.840;2022-11-15T05:06:47;4.47;;;3.50;;
19049;SDS011;9657;45.940;12.840;2022-11-15T05:09:15;4.00;;;3.60;;
19049;SDS011;9657;45.940;12.840;2022-11-15T05:11:44;4.70;;;3.67;;
19049;SDS011;9657;45.940;12.840;2022-11-15T05:14:11;6.67;;;4.67;;
19049;SDS011;9657;45.940;12.840;2022-11-15T05:16:39;4.00;;;3.60;;
19049;SDS011;9657;45.940;12.840;2022-11-15T05:19:06;5.00;;;3.70;;
19049;SDS011;9657;45.940;12.840;2022-11-15T05:21:33;5.03;;;3.70;;
19049;SDS011;9657;45.940;12.840;2022-11-15T05:24:01;5.40;;;4.07;;
19049;SDS011;9657;45.940;12.840;2022-11-15T05:26:28;4.20;;;3.80;;
19049;SDS011;9657;45.940;12.840;2022-11-15T05:28:57;4.13;;;3.73;;
19049;SDS011;9657;45.940;12.840;2022-11-15T05:31:25;5.13;;;4.13;;
19049;SDS011;9657;45.940;12.840;2022-11-15T05:33:53;4.77;;;3.97;;
19049;SDS011;9657;45.940;12.840;2022-11-15T05:36:24;5.13;;;3.80;;
19049;SDS011;9657;45.940;12.840;2022-11-15T05:38:55;5.03;;;4.40;;
19049;SDS011;9657;45.940;12.840;2022-11-15T05:41:24;4.60;;;3.57;;
19049;SDS011;9657;45.940;12.840;2022-11-15T05:43:58;4.20;;;3.60;;
19049;SDS011;9657;45.940;12.840;2022-11-15T05:46:27;4.67;;;3.47;;
19049;SDS011;9657;45.940;12.840;2022-11-15T05:48:55;6.43;;;3.67;;
19049;SDS011;9657;45.940;12.840;2022-11-15T05:51:24;3.87;;;3.23;;
19049;SDS011;9657;45.940;12.840;2022-11-15T05:53:53;5.37;;;3.87;;
19049;SDS011;9657;45.940;12.840;2022-11-15T05:56:23;4.90;;;3.63;;
19049;SDS011;9657;45.940;12.840;2022-11-15T05:58:51;4.53;;;3.83;;
19049;SDS011;9657;45.940;12.840;2022-11-15T06:01:20;4.37;;;3.50;;
19049;SDS011;9657;45.940;12.840;2022-11-15T06:03:47;5.43;;;3.57;;
19049;SDS011;9657;45.940;12.840;2022-11-15T06:06:14;4.83;;;3.00;;
19049;SDS011;9657;45.940;12.840;2022-11-15T06:08:42;6.10;;;3.60;;
19049;SDS011;9657;45.940;12.840;2022-11-15T06:11:09;4.77;;;3.60;;
19049;SDS011;9657;45.940;12.840;2022-11-15T06:13:36;4.10;;;3.57;;
19049;SDS011;9657;45.940;12.840;2022-11-15T06:16:03;4.67;;;3.53;;
19049;SDS011;9657;45.940;12.840;2022-11-15T06:18:33;4.33;;;3.50;;
19049;SDS011;9657;45.940;12.840;2022-11-15T06:21:00;5.53;;;3.90;;
19049;SDS011;9657;45.940;12.840;2022-11-15T06:23:32;5.43;;;3.13;;
19049;SDS011;9657;45.940;12.840;2022-11-15T06:26:00;3.60;;;3.00;;
19049;SDS011;9657;45.940;12.840;2022-11-15T06:28:28;4.50;;;3.47;;
19049;SDS011;9657;45.940;12.840;2022-11-15T06:31:01;3.40;;;3.10;;
19049;SDS011;9657;45.940;12.840;2022-11-15T06:33:28;4.83;;;3.13;;
19049;SDS011;9657;45.940;12.840;2022-11-15T06:35:57;4.77;;;3.90;;
19049;SDS011;9657;45.940;12.840;2022-11-15T06:38:26;5.70;;;3.60;;
19049;SDS011;9657;45.940;12.840;2022-11-15T06:40:54;8.67;;;4.60;;
19049;SDS011;9657;45.940;12.840;2022-11-15T06:43:21;7.37;;;3.50;;
19049;SDS011;9657;45.940;12.840;2022-11-15T06:45:48;11.73;;;4.87;;
19049;SDS011;9657;45.940;12.840;2022-11-15T06:48:15;7.73;;;4.40;;
19049;SDS011;9657;45.940;12.840;2022-11-15T06:50:42;9.00;;;3.97;;
19049;SDS011;9657;45.940;12.840;2022-11-15T06:53:10;7.70;;;3.90;;
19049;SDS011;9657;45.940;12.840;2022-11-15T06:55:37;9.53;;;4.13;;
19049;SDS011;9657;45.940;12.840;2022-11-15T06:58:04;10.03;;;3.57;;
19049;SDS011;9657;45.940;12.840;2022-11-15T07:00:31;13.50;;;4.90;;
19049;SDS011;9657;45.940;12.840;2022-11-15T07:02:59;7.50;;;3.60;;
19049;SDS011;9657;45.940;12.840;2022-11-15T07:05:26;7.47;;;3.70;;
19049;SDS011;9657;45.940;12.840;2022-11-15T07:07:54;7.80;;;3.50;;
19049;SDS011;9657;45.940;12.840;2022-11-15T07:10:24;8.53;;;3.67;;
19049;SDS011;9657;45.940;12.840;2022-11-15T07:12:51;5.37;;;3.33;;
19049;SDS011;9657;45.940;12.840;2022-11-15T07:15:19;9.67;;;4.37;;
19049;SDS011;9657;45.940;12.840;2022-11-15T07:17:47;8.37;;;3.50;;
19049;SDS011;9657;45.940;12.840;2022-11-15T07:20:14;5.20;;;3.40;;
19049;SDS011;9657;45.940;12.840;2022-11-15T07:22:42;7.00;;;3.60;;
19049;SDS011;9657;45.940;12.840;2022-11-15T07:25:10;6.53;;;3.23;;
19049;SDS011;9657;45.940;12.840;2022-11-15T07:27:38;6.33;;;3.37;;
19049;SDS011;9657;45.940;12.840;2022-11-15T07:30:06;4.40;;;3.60;;
19049;SDS011;9657;45.940;12.840;2022-11-15T07:32:34;8.07;;;4.63;;
19049;SDS011;9657;45.940;12.840;2022-11-15T07:35:01;7.97;;;4.30;;
19049;SDS011;9657;45.940;12.840;2022-11-15T07:37:28;6.00;;;4.03;;
19049;SDS011;9657;45.940;12.840;2022-11-15T07:39:55;9.93;;;5.27;;
19049;SDS011;9657;45.940;12.840;2022-11-15T07:42:22;21.77;;;7.97;;
19049;SDS011;9657;45.940;12.840;2022-11-15T07:45:08;44.80;;;15.53;;
19049;SDS011;9657;45.940;12.840;2022-11-15T07:47:35;59.43;;;19.00;;
19049;SDS011;9657;45.940;12.840;2022-11-15T07:50:02;71.17;;;24.47;;
19049;SDS011;9657;45.940;12.840;2022-11-15T07:52:30;94.93;;;24.17;;
19049;SDS011;9657;45.940;12.840;2022-11-15T07:54:57;97.47;;;24.57;;
19049;SDS011;9657;45.940;12.840;2022-11-15T07:57:24;109.43;;;27.40;;
19049;SDS011;9657;45.940;12.840;2022-11-15T07:59:51;123.17;;;30.47;;
19049;SDS011;9657;45.940;12.840;2022-11-15T08:02:20;107.23;;;33.07;;
19049;SDS011;9657;45.940;12.840;2022-11-15T08:04:47;115.67;;;34.43;;
19049;SDS011;9657;45.940;12.840;2022-11-15T08:07:14;119.37;;;36.03;;
19049;SDS011;9657;45.940;12.840;2022-11-15T08:09:41;109.23;;;35.27;;
19049;SDS011;9657;45.940;12.840;2022-11-15T08:12:08;100.00;;;31.30;;
19049;SDS011;9657;45.940;12.840;2022-11-15T08:14:35;111.00;;;33.80;;
19049;SDS011;9657;45.940;12.840;2022-11-15T08:17:03;83.97;;;25.67;;
19049;SDS011;9657;45.940;12.840;2022-11-15T08:19:32;103.97;;;27.47;;
19049;SDS011;9657;45.940;12.840;2022-11-15T08:21:59;93.13;;;24.47;;
19049;SDS011;9657;45.940;12.840;2022-11-15T08:24:26;85.47;;;23.07;;
19049;SDS011;9657;45.940;12.840;2022-11-15T08:26:53;91.17;;;26.07;;
19049;SDS011;9657;45.940;12.840;2022-11-15T08:29:20;93.27;;;27.73;;
19049;SDS011;9657;45.940;12.840;2022-11-15T08:31:48;83.70;;;27.73;;
19049;SDS011;9657;45.940;12.840;2022-11-15T08:34:15;88.57;;;28.83;;
19049;SDS011;9657;45.940;12.840;2022-11-15T08:36:43;75.63;;;25.53;;
19049;SDS011;9657;45.940;12.840;2022-11-15T08:39:11;72.13;;;26.10;;
19049;SDS011;9657;45.940;12.840;2022-11-15T08:41:38;76.67;;;27.23;;
19049;SDS011;9657;45.940;12.840;2022-11-15T08:44:05;75.23;;;24.23;;
19049;SDS011;9657;45.940;12.840;2022-11-15T08:46:33;71.07;;;23.90;;
19049;SDS011;9657;45.940;12.840;2022-11-15T08:49:00;71.73;;;20.20;;
19049;SDS011;9657;45.940;12.840;2022-11-15T08:51:27;74.20;;;23.80;;
19049;SDS011;9657;45.940;12.840;2022-11-15T08:53:56;72.10;;;19.33;;
19049;SDS011;9657;45.940;12.840;2022-11-15T08:56:23;65.73;;;20.03;;
19049;SDS011;9657;45.940;12.840;2022-11-15T08:58:50;70.37;;;18.53;;
19049;SDS011;9657;45.940;12.840;2022-11-15T09:01:18;52.70;;;19.30;;
19049;SDS011;9657;45.940;12.840;2022-11-15T09:03:46;60.73;;;21.40;;
19049;SDS011;9657;45.940;12.840;2022-11-15T09:06:13;68.40;;;22.53;;
19049;SDS011;9657;45.940;12.840;2022-11-15T09:08:41;64.67;;;22.17;;
19049;SDS011;9657;45.940;12.840;2022-11-15T09:11:09;61.23;;;20.30;;
19049;SDS011;9657;45.940;12.840;2022-11-15T09:13:37;59.23;;;16.23;;
19049;SDS011;9657;45.940;12.840;2022-11-15T09:16:04;53.43;;;15.23;;
19049;SDS011;9657;45.940;12.840;2022-11-15T09:18:32;62.60;;;17.90;;
19049;SDS011;9657;45.940;12.840;2022-11-15T09:21:00;59.97;;;20.17;;
19049;SDS011;9657;45.940;12.840;2022-11-15T09:23:28;57.37;;;19.70;;
19049;SDS011;9657;45.940;12.840;2022-11-15T09:25:59;57.80;;;19.77;;
19049;SDS011;9657;45.940;12.840;2022-11-15T09:28:29;50.63;;;18.80;;
19049;SDS011;9657;45.940;12.840;2022-11-15T09:30:58;43.10;;;18.70;;
19049;SDS011;9657;45.940;12.840;2022-11-15T09:33:25;51.90;;;19.03;;
19049;SDS011;9657;45.940;12.840;2022-11-15T09:35:53;45.57;;;17.27;;
19049;SDS011;9657;45.940;12.840;2022-11-15T09:38:20;57.03;;;19.20;;
19049;SDS011;9657;45.940;12.840;2022-11-15T09:40:49;41.43;;;13.50;;
19049;SDS011;9657;45.940;12.840;2022-11-15T09:43:31;43.93;;;13.67;;
19049;SDS011;9657;45.940;12.840;2022-11-15T09:46:08;48.57;;;14.03;;
19049;SDS011;9657;45.940;12.840;2022-11-15T09:48:51;44.73;;;16.67;;
19049;SDS011;9657;45.940;12.840;2022-11-15T09:51:23;40.00;;;15.60;;
19049;SDS011;9657;45.940;12.840;2022-11-15T09:53:56;40.53;;;15.07;;
19049;SDS011;9657;45.940;12.840;2022-11-15T09:56:29;41.37;;;16.67;;
19049;SDS011;9657;45.940;12.840;2022-11-15T09:59:06;39.93;;;15.20;;
19049;SDS011;9657;45.940;12.840;2022-11-15T10:01:49;41.90;;;15.07;;
19049;SDS011;9657;45.940;12.840;2022-11-15T10:04:22;36.47;;;15.07;;
19049;SDS011;9657;45.940;12.840;2022-11-15T10:06:53;39.10;;;14.07;;
19049;SDS011;9657;45.940;12.840;2022-11-15T10:09:28;36.53;;;12.80;;
19049;SDS011;9657;45.940;12.840;2022-11-15T10:12:02;43.67;;;12.90;;
19049;SDS011;9657;45.940;12.840;2022-11-15T10:14:31;41.90;;;12.87;;
19049;SDS011;9657;45.940;12.840;2022-11-15T10:17:05;40.73;;;14.50;;
19049;SDS011;9657;45.940;12.840;2022-11-15T10:19:53;42.23;;;14.93;;
19049;SDS011;9657;45.940;12.840;2022-11-15T10:22:28;37.50;;;13.87;;
19049;SDS011;9657;45.940;12.840;2022-11-15T10:25:00;43.87;;;15.13;;
19049;SDS011;9657;45.940;12.840;2022-11-15T10:27:43;36.33;;;13.47;;
19049;SDS011;9657;45.940;12.840;2022-11-15T10:30:16;40.50;;;14.03;;
19049;SDS011;9657;45.940;12.840;2022-11-15T10:32:45;33.40;;;10.93;;
19049;SDS011;9657;45.940;12.840;2022-11-15T10:35:19;32.43;;;11.90;;
19049;SDS011;9657;45.940;12.840;2022-11-15T10:37:48;31.43;;;12.73;;
19049;SDS011;9657;45.940;12.840;2022-11-15T10:40:16;35.53;;;12.93;;
19049;SDS011;9657;45.940;12.840;2022-11-15T10:42:46;26.97;;;12.50;;
19049;SDS011;9657;45.940;12.840;2022-11-15T10:45:24;34.60;;;12.23;;
19049;SDS011;9657;45.940;12.840;2022-11-15T10:47:53;33.67;;;11.77;;
19049;SDS011;9657;45.940;12.840;2022-11-15T10:50:41;27.50;;;10.67;;
19049;SDS011;9657;45.940;12.840;2022-11-15T10:53:11;28.17;;;10.07;;
19049;SDS011;9657;45.940;12.840;2022-11-15T10:55:46;29.67;;;10.90;;
19049;SDS011;9657;45.940;12.840;2022-11-15T10:58:20;24.33;;;10.63;;
19049;SDS011;9657;45.940;12.840;2022-11-15T11:00:57;28.03;;;11.17;;
19049;SDS011;9657;45.940;12.840;2022-11-15T11:03:37;29.43;;;11.50;;
19049;SDS011;9657;45.940;12.840;2022-11-15T11:06:07;24.57;;;9.43;;
19049;SDS011;9657;45.940;12.840;2022-11-15T11:08:36;28.77;;;9.33;;
19049;SDS011;9657;45.940;12.840;2022-11-15T11:11:04;29.20;;;9.13;;
19049;SDS011;9657;45.940;12.840;2022-11-15T11:13:34;22.13;;;8.57;;
19049;SDS011;9657;45.940;12.840;2022-11-15T11:16:09;25.80;;;8.57;;
19049;SDS011;9657;45.940;12.840;2022-11-15T11:19:02;27.17;;;11.47;;
19049;SDS011;9657;45.940;12.840;2022-11-15T11:21:37;22.43;;;9.40;;
19049;SDS011;9657;45.940;12.840;2022-11-15T11:24:14;24.53;;;10.07;;
19049;SDS011;9657;45.940;12.840;2022-11-15T11:26:55;22.93;;;8.00;;
19049;SDS011;9657;45.940;12.840;2022-11-15T11:29:32;25.33;;;9.80;;
19049;SDS011;9657;45.940;12.840;2022-11-15T11:32:19;24.40;;;8.77;;
19049;SDS011;9657;45.940;12.840;2022-11-15T11:35:06;20.70;;;9.13;;
19049;SDS011;9657;45.940;12.840;2022-11-15T11:37:40;20.07;;;9.83;;
19049;SDS011;9657;45.940;12.840;2022-11-15T11:40:16;25.47;;;8.63;;
19049;SDS011;9657;45.940;12.840;2022-11-15T11:42:53;22.90;;;10.43;;
19049;SDS011;9657;45.940;12.840;2022-11-15T11:45:27;18.73;;;8.47;;
19049;SDS011;9657;45.940;12.840;2022-11-15T11:48:11;19.97;;;8.60;;
19049;SDS011;9657;45.940;12.840;2022-11-15T11:50:39;21.83;;;9.53;;
19049;SDS011;9657;45.940;12.840;2022-11-15T11:53:11;22.20;;;9.60;;
19049;SDS011;9657;45.940;12.840;2022-11-15T11:55:42;24.40;;;9.63;;
19049;SDS011;9657;45.940;12.840;2022-11-15T11:58:13;19.77;;;7.90;;
19049;SDS011;9657;45.940;12.840;2022-11-15T12:00:46;20.00;;;8.13;;
19049;SDS011;9657;45.940;12.840;2022-11-15T12:03:22;19.50;;;7.90;;
19049;SDS011;9657;45.940;12.840;2022-11-15T12:05:54;19.63;;;7.97;;
19049;SDS011;9657;45.940;12.840;2022-11-15T12:08:25;17.77;;;8.10;;
19049;SDS011;9657;45.940;12.840;2022-11-15T12:11:00;14.37;;;7.57;;
19049;SDS011;9657;45.940;12.840;2022-11-15T12:13:33;18.07;;;7.63;;
19049;SDS011;9657;45.940;12.840;2022-11-15T12:16:03;16.97;;;8.50;;
19049;SDS011;9657;45.940;12.840;2022-11-15T12:18:38;18.37;;;8.50;;
19049;SDS011;9657;45.940;12.840;2022-11-15T12:21:13;17.07;;;7.90;;
19049;SDS011;9657;45.940;12.840;2022-11-15T12:23:45;17.13;;;6.87;;
19049;SDS011;9657;45.940;12.840;2022-11-15T12:26:16;17.40;;;8.47;;
19049;SDS011;9657;45.940;12.840;2022-11-15T12:28:49;18.67;;;8.63;;
19049;SDS011;9657;45.940;12.840;2022-11-15T12:31:21;16.63;;;7.23;;
19049;SDS011;9657;45.940;12.840;2022-11-15T12:33:54;18.73;;;8.27;;
19049;SDS011;9657;45.940;12.840;2022-11-15T12:36:30;15.40;;;7.93;;
19049;SDS011;9657;45.940;12.840;2022-11-15T12:39:03;15.90;;;7.57;;
19049;SDS011;9657;45.940;12.840;2022-11-15T12:41:32;15.07;;;8.57;;
19049;SDS011;9657;45.940;12.840;2022-11-15T12:44:00;15.23;;;7.50;;
19049;SDS011;9657;45.940;12.840;2022-11-15T12:49:45;10.90;;;7.10;;
19049;SDS011;9657;45.940;12.840;2022-11-15T12:52:13;13.77;;;6.73;;
19049;SDS011;9657;45.940;12.840;2022-11-15T12:55:00;14.93;;;7.07;;
19049;SDS011;9657;45.940;12.840;2022-11-15T12:57:33;13.10;;;6.90;;
19049;SDS011;9657;45.940;12.840;2022-11-15T13:00:05;16.80;;;7.70;;
19049;SDS011;9657;45.940;12.840;2022-11-15T13:03:17;19.70;;;7.43;;
19049;SDS011;9657;45.940;12.840;2022-11-15T13:09:03;31.50;;;8.37;;
19049;SDS011;9657;45.940;12.840;2022-11-15T13:11:52;23.40;;;9.60;;
19049;SDS011;9657;45.940;12.840;2022-11-15T13:17:12;30.97;;;10.20;;
19049;SDS011;9657;45.940;12.840;2022-11-15T13:19:53;21.00;;;7.93;;
19049;SDS011;9657;45.940;12.840;2022-11-15T13:22:27;22.73;;;9.40;;
19049;SDS011;9657;45.940;12.840;2022-11-15T13:25:15;21.73;;;9.03;;
19049;SDS011;9657;45.940;12.840;2022-11-15T13:27:46;20.63;;;8.07;;
19049;SDS011;9657;45.940;12.840;2022-11-15T13:30:15;31.90;;;10.07;;
19049;SDS011;9657;45.940;12.840;2022-11-15T13:32:47;22.27;;;8.63;;
19049;SDS011;9657;45.940;12.840;2022-11-15T13:35:18;17.80;;;8.90;;
19049;SDS011;9657;45.940;12.840;2022-11-15T13:37:50;22.47;;;8.07;;
19049;SDS011;9657;45.940;12.840;2022-11-15T13:40:23;22.77;;;8.53;;
19049;SDS011;9657;45.940;12.840;2022-11-15T13:42:55;24.10;;;9.23;;
19049;SDS011;9657;45.940;12.840;2022-11-15T13:45:23;20.33;;;7.00;;
19049;SDS011;9657;45.940;12.840;2022-11-15T13:47:52;19.03;;;7.57;;
19049;SDS011;9657;45.940;12.840;2022-11-15T13:50:21;15.23;;;6.27;;
19049;SDS011;9657;45.940;12.840;2022-11-15T13:52:52;22.40;;;8.00;;
19049;SDS011;9657;45.940;12.840;2022-11-15T13:55:24;23.83;;;8.00;;
19049;SDS011;9657;45.940;12.840;2022-11-15T13:57:53;17.17;;;7.53;;
19049;SDS011;9657;45.940;12.840;2022-11-15T14:00:25;19.80;;;8.27;;
19049;SDS011;9657;45.940;12.840;2022-11-15T14:02:56;16.40;;;6.60;;
19049;SDS011;9657;45.940;12.840;2022-11-15T14:05:31;20.77;;;7.40;;
19049;SDS011;9657;45.940;12.840;2022-11-15T14:08:01;16.90;;;7.70;;
19049;SDS011;9657;45.940;12.840;2022-11-15T14:10:30;16.53;;;6.73;;
19049;SDS011;9657;45.940;12.840;2022-11-15T14:12:59;17.23;;;8.30;;
19049;SDS011;9657;45.940;12.840;2022-11-15T14:15:28;15.03;;;6.67;;
19049;SDS011;9657;45.940;12.840;2022-11-15T14:17:57;21.73;;;6.73;;
19049;SDS011;9657;45.940;12.840;2022-11-15T14:20:26;14.17;;;7.27;;
19049;SDS011;9657;45.940;12.840;2022-11-15T14:22:57;17.23;;;6.43;;
19049;SDS011;9657;45.940;12.840;2022-11-15T14:25:27;16.30;;;6.37;;
19049;SDS011;9657;45.940;12.840;2022-11-15T14:28:08;21.10;;;7.23;;
19049;SDS011;9657;45.940;12.840;2022-11-15T14:30:55;17.77;;;6.30;;
19049;SDS011;9657;45.940;12.840;2022-11-15T14:33:25;15.33;;;7.47;;
19049;SDS011;9657;45.940;12.840;2022-11-15T14:35:55;13.50;;;6.13;;
19049;SDS011;9657;45.940;12.840;2022-11-15T14:38:25;14.17;;;7.40;;
19049;SDS011;9657;45.940;12.840;2022-11-15T14:40:52;16.57;;;6.87;;
19049;SDS011;9657;45.940;12.840;2022-11-15T14:43:20;15.90;;;6.23;;
19049;SDS011;9657;45.940;12.840;2022-11-15T14:45:48;15.73;;;6.47;;
19049;SDS011;9657;45.940;12.840;2022-11-15T14:48:15;12.77;;;7.00;;
19049;SDS011;9657;45.940;12.840;2022-11-15T14:50:42;19.63;;;6.40;;
19049;SDS011;9657;45.940;12.840;2022-11-15T14:53:11;13.83;;;6.80;;
19049;SDS011;9657;45.940;12.840;2022-11-15T14:55:41;12.53;;;5.87;;
19049;SDS011;9657;45.940;12.840;2022-11-15T14:58:08;16.03;;;6.17;;
19049;SDS011;9657;45.940;12.840;2022-11-15T15:00:36;13.33;;;6.87;;
19049;SDS011;9657;45.940;12.840;2022-11-15T15:03:05;11.67;;;5.80;;
19049;SDS011;9657;45.940;12.840;2022-11-15T15:05:33;11.03;;;6.00;;
19049;SDS011;9657;45.940;12.840;2022-11-15T15:08:03;13.00;;;6.23;;
19049;SDS011;9657;45.940;12.840;2022-11-15T15:10:31;13.67;;;6.17;;
19049;SDS011;9657;45.940;12.840;2022-11-15T15:13:01;13.27;;;6.23;;
19049;SDS011;9657;45.940;12.840;2022-11-15T15:15:31;16.40;;;6.27;;